Time;durP1;ratioP1;P1;durP2;ratioP2;P2;SDS_P1;SDS_P2;PMS_P1;PMS_P2;Temp;Humidity;BMP_temperature;BMP_pressure;BME280_temperature;BME280_humidity;BME280_pressure;Samples;Min_cycle;Max_cycle;Signal;HPM_P1;HPM_P2
2021/01/06 00:00:43;;;;;;;20.95;11.52;;;13.80;99.90;;;;;;4948281;29;20027;-74
2021/01/06 00:03:23;;;;;;;22.88;10.95;;;13.80;99.90;;;;;;4951884;29;20027;-76
2021/01/06 00:05:52;;;;;;;19.15;10.80;;;13.80;99.90;;;;;;4954865;29;20027;-76
2021/01/06 00:08:19;;;;;;;22.60;13.05;;;13.80;99.90;;;;;;4955582;29;20349;-76
2021/01/06 00:10:50;;;;;;;21.92;12.23;;;13.70;99.90;;;;;;4955071;29;20035;-75
2021/01/06 00:13:17;;;;;;;20.08;11.25;;;13.80;99.90;;;;;;4939356;29;20038;-77
2021/01/06 00:15:45;;;;;;;20.25;10.45;;;13.90;99.90;;;;;;4937439;29;20023;-75
2021/01/06 00:18:12;;;;;;;22.88;11.30;;;14.00;99.90;;;;;;4953854;29;20364;-76
2021/01/06 00:20:39;;;;;;;22.38;10.75;;;14.00;99.90;;;;;;4955881;29;20066;-76
2021/01/06 00:23:06;;;;;;;19.05;10.93;;;14.00;99.90;;;;;;4955244;29;20054;-76
2021/01/06 00:25:35;;;;;;;28.13;10.35;;;13.90;99.90;;;;;;4955558;29;20031;-75
2021/01/06 00:28:04;;;;;;;16.70;9.07;;;14.00;99.90;;;;;;4953978;28;20081;-74
2021/01/06 00:30:40;;;;;;;21.55;10.05;;;14.10;99.90;;;;;;4950027;28;20035;-77
2021/01/06 00:33:11;;;;;;;17.45;10.00;;;14.20;99.90;;;;;;4952990;29;20027;-72
2021/01/06 00:35:38;;;;;;;22.88;11.48;;;14.20;99.90;;;;;;4933518;29;20098;-72
2021/01/06 00:38:05;;;;;;;18.38;9.48;;;14.20;99.90;;;;;;4947219;29;20051;-74
2021/01/06 00:40:35;;;;;;;20.90;9.50;;;14.00;99.90;;;;;;4947713;28;20027;-76
2021/01/06 00:43:04;;;;;;;20.58;11.70;;;13.90;99.90;;;;;;4947889;28;20019;-75
2021/01/06 00:45:31;;;;;;;18.60;10.80;;;13.90;99.90;;;;;;4949287;28;20031;-75
2021/01/06 00:47:58;;;;;;;21.80;11.82;;;13.70;99.90;;;;;;4950358;28;20512;-76
2021/01/06 00:50:27;;;;;;;25.23;13.00;;;13.50;99.90;;;;;;4952660;28;20038;-71
2021/01/06 00:52:58;;;;;;;30.35;12.20;;;13.50;99.90;;;;;;4949143;28;21464;-75
2021/01/06 00:55:25;;;;;;;25.02;12.18;;;13.40;99.90;;;;;;4934878;28;20102;-76
2021/01/06 00:57:52;;;;;;;20.48;11.02;;;13.40;99.90;;;;;;4947667;28;20654;-74
2021/01/06 01:00:20;;;;;;;17.10;9.63;;;13.40;99.90;;;;;;4944087;28;20524;-74
2021/01/06 01:02:53;;;;;;;20.25;11.13;;;13.50;99.90;;;;;;4948123;28;20046;-74
2021/01/06 01:05:22;;;;;;;20.80;9.85;;;13.40;99.90;;;;;;4946417;28;20039;-71
2021/01/06 01:07:49;;;;;;;18.85;9.60;;;13.40;99.90;;;;;;4945582;28;20125;-69
2021/01/06 01:10:38;;;;;;;16.92;9.15;;;13.30;99.90;;;;;;4929504;28;20318;-73
2021/01/06 01:13:16;;;;;;;16.45;9.82;;;13.30;99.90;;;;;;4947772;28;20024;-77
2021/01/06 01:15:47;;;;;;;18.88;11.35;;;13.20;99.90;;;;;;4941425;28;20042;-75
2021/01/06 01:18:16;;;;;;;17.17;11.15;;;13.30;99.90;;;;;;4947478;28;20102;-73
2021/01/06 01:20:45;;;;;;;27.20;12.55;;;13.20;99.90;;;;;;4941961;28;20093;-73
2021/01/06 01:23:12;;;;;;;21.58;10.95;;;13.10;99.90;;;;;;4946349;28;20067;-73
2021/01/06 01:25:42;;;;;;;23.92;12.85;;;13.10;99.90;;;;;;4946135;28;20123;-73
2021/01/06 01:28:10;;;;;;;22.25;12.20;;;13.10;99.90;;;;;;4945964;28;20110;-74
2021/01/06 01:30:37;;;;;;;28.20;12.35;;;13.00;99.90;;;;;;4928157;29;20046;-74
2021/01/06 01:33:04;;;;;;;25.50;11.63;;;13.00;99.90;;;;;;4949164;28;20098;-73
2021/01/06 01:35:32;;;;;;;21.90;11.15;;;13.00;99.90;;;;;;4947023;28;20090;-72
2021/01/06 01:38:02;;;;;;;17.27;11.00;;;12.70;99.90;;;;;;4947911;28;20023;-72
2021/01/06 01:40:32;;;;;;;31.10;15.40;;;12.60;99.90;;;;;;4943375;28;20031;-73
2021/01/06 01:43:06;;;;;;;28.63;16.42;;;12.70;99.90;;;;;;4944736;28;20155;-72
2021/01/06 01:46:00;;;;;;;34.28;13.68;;;12.70;99.90;;;;;;4946469;28;20023;-72
2021/01/06 01:48:46;;;;;;;24.45;13.90;;;12.70;99.90;;;;;;5446755;23;20051;-73
2021/01/06 01:51:25;;;;;;;26.58;12.20;;;12.70;99.90;;;;;;4949627;28;20417;-72
2021/01/06 01:54:06;;;;;;;20.80;14.18;;;12.40;99.90;;;;;;4948435;28;20082;-73
2021/01/06 01:56:49;;;;;;;24.60;15.38;;;12.30;99.90;;;;;;4946137;28;20086;-73
2021/01/06 01:59:39;;;;;;;37.55;16.73;;;12.40;99.90;;;;;;4946306;28;20185;-73
2021/01/06 02:02:15;;;;;;;22.15;13.02;;;12.40;99.90;;;;;;4948097;28;20035;-73
2021/01/06 02:04:49;;;;;;;27.55;15.85;;;12.40;99.90;;;;;;4949915;28;20039;-71
2021/01/06 02:07:19;;;;;;;26.90;15.15;;;12.10;99.90;;;;;;4943943;28;20043;-73
2021/01/06 02:09:51;;;;;;;27.38;14.77;;;11.90;99.90;;;;;;4944632;28;20134;-73
2021/01/06 02:12:42;;;;;;;32.83;16.08;;;11.90;99.90;;;;;;4944524;28;20595;-73
2021/01/06 02:15:59;;;;;;;28.67;15.90;;;11.80;99.90;;;;;;4951586;28;20036;-73
2021/01/06 02:18:26;;;;;;;29.63;16.20;;;11.70;99.90;;;;;;4940809;28;20114;-71
2021/01/06 02:21:10;;;;;;;35.63;17.95;;;11.60;99.90;;;;;;4951130;28;20110;-73
2021/01/06 02:23:37;;;;;;;31.77;18.80;;;11.50;99.90;;;;;;4957875;28;20098;-72
2021/01/06 02:26:04;;;;;;;40.60;18.85;;;11.50;99.90;;;;;;4955424;28;20763;-72
2021/01/06 02:28:31;;;;;;;32.53;19.15;;;11.50;99.90;;;;;;4950847;28;20031;-73
2021/01/06 02:30:58;;;;;;;34.13;19.25;;;11.50;99.90;;;;;;4952875;28;20027;-72
2021/01/06 02:33:26;;;;;;;36.22;20.60;;;11.40;99.90;;;;;;4957846;28;20031;-72
2021/01/06 02:35:53;;;;;;;36.17;21.73;;;11.40;99.90;;;;;;4949925;28;20114;-72
2021/01/06 02:38:21;;;;;;;35.65;19.92;;;11.40;99.90;;;;;;4949526;28;20170;-70
2021/01/06 02:40:50;;;;;;;36.22;22.83;;;11.40;99.90;;;;;;4947323;28;20032;-69
2021/01/06 02:43:17;;;;;;;37.80;19.80;;;11.50;99.90;;;;;;4944010;28;20059;-67
2021/01/06 02:45:43;;;;;;;36.72;20.60;;;11.60;99.90;;;;;;5442886;23;20017;-70
2021/01/06 02:48:10;;;;;;;36.50;22.50;;;11.40;99.90;;;;;;4930654;29;20168;-69
2021/01/06 02:50:43;;;;;;;42.92;21.65;;;11.30;99.90;;;;;;4926226;29;20028;-69
2021/01/06 02:53:17;;;;;;;43.00;23.77;;;11.20;99.90;;;;;;4922293;29;20047;-68
2021/01/06 02:55:47;;;;;;;39.60;23.88;;;11.20;99.90;;;;;;4925691;29;20032;-68
2021/01/06 02:58:17;;;;;;;39.30;23.92;;;11.10;99.90;;;;;;4925289;29;20028;-68
2021/01/06 03:00:44;;;;;;;43.90;26.02;;;11.10;99.90;;;;;;4924966;29;20035;-69
2021/01/06 03:03:13;;;;;;;53.70;25.25;;;11.00;99.90;;;;;;4928461;29;20035;-70
2021/01/06 03:05:42;;;;;;;40.13;25.52;;;11.10;99.90;;;;;;4929631;29;20046;-69
2021/01/06 03:08:13;;;;;;;54.78;23.75;;;11.20;99.90;;;;;;4931146;29;20027;-70
2021/01/06 03:10:40;;;;;;;44.58;24.25;;;11.20;99.90;;;;;;4928081;29;20057;-71
2021/01/06 03:13:07;;;;;;;47.42;26.90;;;11.10;99.90;;;;;;4926994;29;20435;-69
2021/01/06 03:15:34;;;;;;;53.50;25.58;;;11.10;99.90;;;;;;4936013;29;20039;-68
2021/01/06 03:18:01;;;;;;;50.35;27.45;;;11.10;99.90;;;;;;4930413;29;20043;-68
2021/01/06 03:20:35;;;;;;;45.33;21.80;;;11.20;99.90;;;;;;4935239;29;20037;-69
2021/01/06 03:23:07;;;;;;;42.35;24.90;;;11.20;99.90;;;;;;4932612;28;20103;-74
2021/01/06 03:25:35;;;;;;;54.08;25.50;;;11.20;99.90;;;;;;4932412;29;20062;-72
2021/01/06 03:28:04;;;;;;;42.00;22.80;;;11.20;99.90;;;;;;4934294;29;20083;-69
2021/01/06 03:30:33;;;;;;;35.92;21.02;;;11.20;99.90;;;;;;4926570;29;20031;-72
2021/01/06 03:33:21;;;;;;;36.47;21.00;;;11.10;99.90;;;;;;4924232;29;20142;-72
2021/01/06 03:35:56;;;;;;;40.72;23.17;;;10.90;99.90;;;;;;4922200;29;20024;-74
2021/01/06 03:38:42;;;;;;;39.92;21.50;;;10.60;99.90;;;;;;4921882;29;20115;-72
2021/01/06 03:41:10;;;;;;;34.42;21.35;;;10.40;99.90;;;;;;4936873;28;20024;-73
2021/01/06 03:43:46;;;;;;;44.43;23.90;;;10.40;99.90;;;;;;4943331;29;20093;-75
2021/01/06 03:46:25;;;;;;;42.72;22.55;;;10.30;99.90;;;;;;4941542;29;20354;-76
2021/01/06 03:49:02;;;;;;;;;;;10.30;99.90;;;;;;4941741;28;20071;-73
2021/01/06 03:51:48;;;;;;;38.20;21.55;;;10.20;99.90;;;;;;4942196;28;20262;-74
2021/01/06 03:54:23;;;;;;;44.97;23.42;;;10.20;99.90;;;;;;5443936;23;20062;-73
2021/01/06 03:56:52;;;;;;;49.22;24.00;;;10.10;99.90;;;;;;4942600;28;20074;-73
2021/01/06 03:59:24;;;;;;;39.20;23.35;;;10.10;99.90;;;;;;4943465;28;20080;-74
2021/01/06 04:02:04;;;;;;;47.05;25.73;;;10.10;99.90;;;;;;4944381;28;20122;-74
2021/01/06 04:04:43;;;;;;;45.83;26.10;;;10.10;99.90;;;;;;4942135;28;20082;-76
2021/01/06 04:07:27;;;;;;;38.72;25.52;;;10.00;99.90;;;;;;4942278;28;20122;-74
2021/01/06 04:10:19;;;;;;;49.97;26.73;;;10.00;99.90;;;;;;4941195;28;20046;-74
2021/01/06 04:12:46;;;;;;;49.08;27.13;;;10.00;99.90;;;;;;4955969;28;20082;-72
2021/01/06 04:15:14;;;;;;;53.30;27.80;;;10.10;99.90;;;;;;4944058;28;20031;-73
2021/01/06 04:17:50;;;;;;;52.53;29.48;;;10.10;99.90;;;;;;4942783;28;20059;-72
2021/01/06 04:20:33;;;;;;;53.85;27.15;;;10.10;99.90;;;;;;4942902;28;20074;-71
2021/01/06 04:23:12;;;;;;;49.63;28.67;;;10.10;99.90;;;;;;4942374;28;20032;-70
2021/01/06 04:25:41;;;;;;;55.60;31.40;;;10.10;99.90;;;;;;4941951;28;20027;-71
2021/01/06 04:28:18;;;;;;;61.83;30.98;;;10.10;99.90;;;;;;4943387;28;20586;-70
2021/01/06 04:30:48;;;;;;;56.28;29.92;;;10.20;99.90;;;;;;4942578;28;20047;-73
2021/01/06 04:33:55;;;;;;;60.78;33.70;;;10.30;99.90;;;;;;4940190;28;20031;-72
2021/01/06 04:36:28;;;;;;;62.25;32.80;;;10.30;99.90;;;;;;4938568;28;20545;-72
2021/01/06 04:38:58;;;;;;;63.80;36.75;;;10.30;99.90;;;;;;4942801;28;20490;-72
2021/01/06 04:41:39;;;;;;;59.10;32.13;;;10.40;99.90;;;;;;4940770;28;20043;-73
2021/01/06 04:44:47;;;;;;;58.40;34.40;;;10.40;99.90;;;;;;4939718;29;20045;-72
2021/01/06 04:47:39;;;;;;;64.77;34.60;;;10.40;99.90;;;;;;4931476;29;20043;-72
2021/01/06 04:50:30;;;;;;;62.00;30.40;;;10.40;99.90;;;;;;4957414;28;20089;-76
2021/01/06 04:53:12;;;;;;;63.20;33.00;;;10.30;99.90;;;;;;4943036;29;20036;-76
2021/01/06 04:55:45;;;;;;;58.67;32.30;;;10.00;99.90;;;;;;4940731;28;20571;-75
2021/01/06 04:58:33;;;;;;;53.67;29.88;;;9.90;99.90;;;;;;4941630;28;20061;-77
2021/01/06 05:01:25;;;;;;;60.40;32.77;;;9.80;99.90;;;;;;4937711;28;21743;-74
2021/01/06 05:04:25;;;;;;;59.00;34.45;;;9.80;99.90;;;;;;4942121;28;20279;-74
2021/01/06 05:07:19;;;;;;;57.75;32.53;;;9.90;99.90;;;;;;4937482;28;20421;-75
2021/01/06 05:09:58;;;;;;;63.92;37.83;;;9.80;99.90;;;;;;4940967;28;20035;-73
2021/01/06 05:12:36;;;;;;;;;;;9.80;99.90;;;;;;4942056;28;20118;-74
2021/01/06 05:15:12;;;;;;;60.15;32.13;;;9.90;99.90;;;;;;4942175;29;19926;-74
2021/01/06 05:17:40;;;;;;;77.47;37.42;;;9.90;99.90;;;;;;4941615;28;20365;-73
2021/01/06 05:20:09;;;;;;;66.43;35.20;;;9.80;99.90;;;;;;4941172;29;20023;-72
2021/01/06 05:22:36;;;;;;;55.58;31.92;;;10.00;99.90;;;;;;4942665;28;20028;-73
2021/01/06 05:25:04;;;;;;;63.13;35.20;;;9.90;99.90;;;;;;4941531;28;20031;-72
2021/01/06 05:27:39;;;;;;;66.32;37.30;;;9.90;99.90;;;;;;4940371;28;20055;-72
2021/01/06 05:30:28;;;;;;;53.15;31.13;;;10.00;99.90;;;;;;4941866;28;20660;-71
2021/01/06 05:33:23;;;;;;;46.58;30.30;;;9.90;99.90;;;;;;4941676;29;20358;-72
2021/01/06 05:35:50;;;;;;;54.38;31.23;;;9.70;99.90;;;;;;4940290;29;20039;-72
2021/01/06 05:38:16;;;;;;;53.72;30.48;;;9.60;99.90;;;;;;4938617;28;20031;-71
2021/01/06 05:40:44;;;;;;;72.72;36.92;;;9.50;99.90;;;;;;4942235;28;20032;-71
2021/01/06 05:43:42;;;;;;;57.20;31.92;;;9.60;99.90;;;;;;4941863;28;20035;-71
2021/01/06 05:46:15;;;;;;;55.42;30.55;;;9.50;99.90;;;;;;4941720;28;20459;-71
2021/01/06 05:48:59;;;;;;;59.50;32.47;;;9.50;99.90;;;;;;4941075;28;20035;-71
2021/01/06 05:51:37;;;;;;;67.85;34.72;;;9.60;99.90;;;;;;4939388;28;20043;-72
2021/01/06 05:54:21;;;;;;;48.42;29.95;;;9.60;99.90;;;;;;4941715;28;20106;-71
2021/01/06 05:57:10;;;;;;;50.63;31.13;;;9.60;99.90;;;;;;4944448;28;20043;-72
2021/01/06 05:59:49;;;;;;;52.45;31.58;;;9.50;99.90;;;;;;4945514;29;20035;-71
2021/01/06 06:02:38;;;;;;;54.03;31.17;;;9.40;99.90;;;;;;4959311;28;20106;-72
2021/01/06 06:05:55;;;;;;;67.30;34.53;;;9.30;99.90;;;;;;4949832;28;20039;-72
2021/01/06 06:08:43;;;;;;;52.53;31.63;;;9.30;99.90;;;;;;4882333;29;20056;-72
2021/01/06 06:11:30;;;;;;;56.88;34.38;;;9.20;99.90;;;;;;4943055;28;20057;-72
2021/01/06 06:14:27;;;;;;;66.35;36.83;;;9.10;99.90;;;;;;4943350;28;20167;-72
2021/01/06 06:17:07;;;;;;;56.65;32.05;;;9.20;99.90;;;;;;4943486;28;20031;-72
2021/01/06 06:19:53;;;;;;;89.03;41.70;;;9.20;99.90;;;;;;4945088;28;20027;-72
2021/01/06 06:22:49;;;;;;;85.53;41.47;;;9.30;99.90;;;;;;4945889;28;20064;-72
2021/01/06 06:25:27;;;;;;;72.55;39.65;;;9.50;99.90;;;;;;4937165;28;20043;-72
2021/01/06 06:28:16;;;;;;;58.72;34.30;;;9.60;99.90;;;;;;4944047;28;20090;-72
2021/01/06 06:30:57;;;;;;;68.47;35.75;;;9.40;99.90;;;;;;4944761;29;20309;-72
2021/01/06 06:33:32;;;;;;;71.63;34.17;;;9.30;99.90;;;;;;4944497;28;20051;-71
2021/01/06 06:36:10;;;;;;;68.60;36.45;;;9.20;99.90;;;;;;4946357;28;20171;-72
2021/01/06 06:38:46;;;;;;;76.55;36.70;;;9.00;99.90;;;;;;4945252;28;20023;-72
2021/01/06 06:41:35;;;;;;;72.18;36.40;;;9.00;99.90;;;;;;4942530;28;21812;-73
2021/01/06 06:44:29;;;;;;;78.32;38.15;;;9.00;99.90;;;;;;4945842;29;20027;-72
2021/01/06 06:47:16;;;;;;;99.07;42.45;;;9.00;99.90;;;;;;4944304;28;20409;-75
2021/01/06 06:49:58;;;;;;;71.40;34.53;;;9.00;99.90;;;;;;4944243;28;20032;-72
2021/01/06 06:53:09;;;;;;;78.35;36.05;;;9.10;99.90;;;;;;4943819;29;20354;-73
2021/01/06 06:55:56;;;;;;;80.78;37.45;;;9.10;99.90;;;;;;4896055;29;20063;-73
2021/01/06 06:58:41;;;;;;;86.47;36.50;;;9.20;99.90;;;;;;4944588;28;20035;-72
2021/01/06 07:01:12;;;;;;;88.40;38.17;;;9.20;99.90;;;;;;4942927;28;20034;-76
2021/01/06 07:03:43;;;;;;;78.15;37.22;;;9.20;99.90;;;;;;4945283;29;20027;-73
2021/01/06 07:06:11;;;;;;;72.10;36.05;;;9.20;99.90;;;;;;4943106;28;20402;-74
2021/01/06 07:08:53;;;;;;;69.20;34.80;;;9.20;99.90;;;;;;4942696;28;20042;-72
2021/01/06 07:11:51;;;;;;;77.28;37.17;;;9.20;99.90;;;;;;4943142;28;20039;-72
2021/01/06 07:14:30;;;;;;;84.17;42.00;;;9.30;99.90;;;;;;4940117;28;20055;-74
2021/01/06 07:17:03;;;;;;;;;;;9.40;99.90;;;;;;4943128;28;20027;-73
2021/01/06 07:19:37;;;;;;;73.07;35.92;;;9.50;99.90;;;;;;4943611;29;19914;-73
2021/01/06 07:22:32;;;;;;;84.38;39.42;;;9.50;99.90;;;;;;4956989;28;20066;-74
2021/01/06 07:25:07;;;;;;;65.68;34.72;;;9.50;99.90;;;;;;4943066;29;20034;-73
2021/01/06 07:27:34;;;;;;;72.07;36.88;;;9.50;99.90;;;;;;4942754;28;20063;-74
2021/01/06 07:30:01;;;;;;;79.93;38.92;;;9.30;99.90;;;;;;4941592;29;20027;-74
2021/01/06 07:32:46;;;;;;;69.93;36.42;;;9.30;99.90;;;;;;4943902;29;20126;-73
2021/01/06 07:35:25;;;;;;;86.03;41.85;;;9.30;99.90;;;;;;4943583;29;20158;-73
2021/01/06 07:38:03;;;;;;;101.20;47.70;;;9.40;99.90;;;;;;4943043;28;20039;-73
2021/01/06 07:40:35;;;;;;;71.50;37.33;;;9.50;99.90;;;;;;4941825;28;20039;-73
2021/01/06 07:43:08;;;;;;;69.60;38.53;;;9.50;99.90;;;;;;4944709;28;20039;-73
2021/01/06 07:45:37;;;;;;;97.38;46.38;;;9.30;99.90;;;;;;4942301;28;20035;-73
2021/01/06 07:48:25;;;;;;;92.97;43.97;;;9.40;99.90;;;;;;4942323;28;20034;-73
2021/01/06 07:51:06;;;;;;;66.03;37.17;;;9.40;99.90;;;;;;4942573;28;20061;-73
2021/01/06 07:53:42;;;;;;;61.88;35.38;;;9.20;99.90;;;;;;4942959;28;20102;-73
2021/01/06 07:58:51;;;;;;;90.50;43.15;;;9.00;99.90;;;;;;5127656;23;20074;-73
2021/01/06 08:01:36;;;;;;;58.95;33.70;;;9.00;99.90;;;;;;4938705;28;20031;-74
2021/01/06 08:04:17;;;;;;;67.43;37.20;;;9.00;99.90;;;;;;4930593;28;20031;-74
2021/01/06 08:06:52;;;;;;;84.72;37.78;;;8.90;99.90;;;;;;4930439;28;20449;-74
2021/01/06 08:09:33;;;;;;;65.72;36.97;;;8.80;99.90;;;;;;4942981;28;20031;-71
2021/01/06 08:12:10;;;;;;;60.45;36.45;;;8.80;99.90;;;;;;4942247;28;20035;-73
2021/01/06 08:14:37;;;;;;;86.82;41.75;;;8.80;99.90;;;;;;4941656;28;20043;-72
2021/01/06 08:17:27;;;;;;;79.47;38.10;;;8.80;99.90;;;;;;4943490;28;20472;-73
2021/01/06 08:20:09;;;;;;;61.67;35.42;;;9.00;99.90;;;;;;4939399;28;20473;-72
2021/01/06 08:23:01;;;;;;;73.32;36.42;;;9.00;99.90;;;;;;4943315;28;20042;-71
2021/01/06 08:28:25;;;;;;;69.20;35.28;;;8.90;99.90;;;;;;5142683;23;20063;-72
2021/01/06 08:30:51;;;;;;;80.63;41.13;;;8.80;99.90;;;;;;4967435;28;20053;-72
2021/01/06 08:33:19;;;;;;;72.90;38.67;;;8.90;99.90;;;;;;4970664;28;20030;-75
2021/01/06 08:35:49;;;;;;;70.00;36.33;;;8.90;99.90;;;;;;4970115;28;20034;-74
2021/01/06 08:38:33;;;;;;;66.15;33.83;;;8.80;99.90;;;;;;4962108;28;20057;-73
2021/01/06 08:41:18;;;;;;;67.43;38.72;;;8.80;99.90;;;;;;4963750;28;20023;-72
2021/01/06 08:43:45;;;;;;;69.13;36.55;;;8.80;99.90;;;;;;4963078;28;20181;-73
2021/01/06 08:46:28;;;;;;;85.13;39.75;;;8.90;99.90;;;;;;4961134;28;20035;-74
2021/01/06 08:49:19;;;;;;;72.97;37.53;;;9.00;99.90;;;;;;4962201;28;20030;-74
2021/01/06 08:51:46;;;;;;;81.30;37.58;;;8.90;99.90;;;;;;4961049;28;20038;-73
2021/01/06 08:54:32;;;;;;;79.38;40.45;;;8.80;99.90;;;;;;4961699;28;20062;-72
2021/01/06 08:57:18;;;;;;;76.28;38.30;;;8.90;99.90;;;;;;4962050;28;20027;-74
2021/01/06 08:59:44;;;;;;;84.30;39.50;;;9.00;99.90;;;;;;4961959;28;20341;-75
2021/01/06 09:02:34;;;;;;;134.52;52.67;;;9.10;99.90;;;;;;4961443;28;20157;-74
2021/01/06 09:05:01;;;;;;;154.48;55.72;;;9.30;99.90;;;;;;4961233;28;20035;-73
2021/01/06 09:07:32;;;;;;;118.30;45.92;;;9.50;99.90;;;;;;4961767;28;20134;-74
2021/01/06 09:10:37;;;;;;;121.47;45.33;;;9.40;99.90;;;;;;4959683;28;20390;-74
2021/01/06 09:13:10;;;;;;;218.98;59.15;;;9.30;99.90;;;;;;4960077;28;20047;-74
2021/01/06 09:16:01;;;;;;;227.00;62.10;;;9.20;99.90;;;;;;4960080;28;20167;-74
2021/01/06 09:19:02;;;;;;;341.17;79.10;;;9.30;99.90;;;;;;4961591;28;20019;-73
2021/01/06 09:21:30;;;;;;;309.88;71.82;;;9.40;99.90;;;;;;4961900;28;20073;-74
2021/01/06 09:24:12;;;;;;;239.52;57.30;;;9.60;99.90;;;;;;4961828;28;20144;-72
2021/01/06 09:26:41;;;;;;;291.67;75.45;;;9.60;99.90;;;;;;4962175;28;20042;-72
2021/01/06 09:29:15;;;;;;;297.48;73.22;;;9.60;99.90;;;;;;4961522;28;20034;-72
2021/01/06 09:31:46;;;;;;;314.98;79.53;;;9.70;99.90;;;;;;4961639;28;20028;-73
2021/01/06 09:34:36;;;;;;;180.70;54.15;;;9.70;99.90;;;;;;4960295;28;20085;-74
2021/01/06 09:37:04;;;;;;;468.83;77.18;;;9.70;99.90;;;;;;4961834;28;20035;-74
2021/01/06 09:39:34;;;;;;;622.53;107.43;;;9.70;99.90;;;;;;4961159;28;20042;-73
2021/01/06 09:42:02;;;;;;;379.77;53.15;;;9.70;99.90;;;;;;4960602;28;20169;-74
2021/01/06 09:44:32;;;;;;;315.23;49.58;;;9.70;99.90;;;;;;4959999;28;20370;-74
2021/01/06 09:47:07;;;;;;;596.33;88.07;;;9.60;99.90;;;;;;4960383;28;20030;-74
2021/01/06 09:49:38;;;;;;;450.75;69.30;;;9.50;99.90;;;;;;4960568;28;20057;-73
2021/01/06 09:52:17;;;;;;;400.73;58.33;;;9.30;99.90;;;;;;4957041;28;20594;-76
2021/01/06 09:54:44;;;;;;;348.85;44.22;;;9.30;99.90;;;;;;4959576;28;20046;-74
2021/01/06 09:57:17;;;;;;;480.77;61.60;;;9.20;99.90;;;;;;4961388;28;20023;-73
2021/01/06 09:59:44;;;;;;;380.20;46.38;;;9.10;99.90;;;;;;4961875;28;20893;-73
2021/01/06 10:02:23;;;;;;;691.75;69.70;;;9.00;99.90;;;;;;4960671;28;20027;-75
2021/01/06 10:04:54;;;;;;;408.15;39.05;;;9.10;99.90;;;;;;4961096;28;20023;-73
2021/01/06 10:07:39;;;;;;;867.97;73.20;;;9.10;99.90;;;;;;4960299;28;20306;-75
2021/01/06 10:10:13;;;;;;;143.60;36.70;;;9.10;99.90;;;;;;4961470;28;20058;-74
2021/01/06 10:12:49;;;;;;;312.52;54.22;;;9.00;99.90;;;;;;4961844;28;20031;-75
2021/01/06 10:15:49;;;;;;;142.15;35.78;;;9.00;99.90;;;;;;4960022;28;20023;-75
2021/01/06 10:18:21;;;;;;;105.38;33.33;;;9.10;99.90;;;;;;4941787;28;20418;-75
2021/01/06 10:20:56;;;;;;;71.22;30.40;;;9.00;99.90;;;;;;4960296;28;20376;-74
2021/01/06 10:23:29;;;;;;;70.95;26.80;;;8.90;99.90;;;;;;4961120;28;20030;-75
2021/01/06 10:26:06;;;;;;;72.75;29.38;;;8.90;99.90;;;;;;4960428;28;20026;-75
2021/01/06 10:28:45;;;;;;;207.25;39.28;;;8.80;99.90;;;;;;4959924;28;20323;-75
2021/01/06 10:31:15;;;;;;;71.53;28.48;;;8.90;99.90;;;;;;4959427;28;20121;-74
2021/01/06 10:34:05;;;;;;;111.45;34.53;;;9.00;99.90;;;;;;4961164;28;20034;-74
2021/01/06 10:36:56;;;;;;;245.45;44.75;;;9.00;99.90;;;;;;4960919;28;20037;-74
2021/01/06 10:39:32;;;;;;;163.98;38.33;;;9.00;99.90;;;;;;4970863;28;20046;-74
2021/01/06 10:42:02;;;;;;;200.18;36.47;;;9.00;99.90;;;;;;4973280;28;20049;-73
2021/01/06 10:44:48;;;;;;;179.90;40.97;;;9.00;99.90;;;;;;4976406;28;20420;-72
2021/01/06 10:47:27;;;;;;;521.63;60.83;;;8.90;99.90;;;;;;4974481;28;20081;-73
2021/01/06 10:50:26;;;;;;;287.65;36.40;;;8.80;99.90;;;;;;4975323;28;20093;-73
2021/01/06 10:53:02;;;;;;;285.33;31.50;;;8.70;99.90;;;;;;4972522;28;20034;-73
2021/01/06 10:55:38;;;;;;;340.85;27.75;;;8.70;99.90;;;;;;4976966;28;20097;-74
2021/01/06 10:58:32;;;;;;;227.25;25.67;;;8.50;99.90;;;;;;4974212;28;20042;-75
2021/01/06 11:01:17;;;;;;;453.70;37.03;;;8.60;99.90;;;;;;4963768;28;20142;-76
2021/01/06 11:03:50;;;;;;;431.42;38.58;;;8.60;99.90;;;;;;4973635;28;20058;-74
2021/01/06 11:06:50;;;;;;;300.15;35.83;;;8.50;99.90;;;;;;4975297;28;20015;-74
2021/01/06 11:09:33;;;;;;;414.08;35.28;;;8.60;99.90;;;;;;4967396;28;20026;-75
2021/01/06 11:12:25;;;;;;;94.60;21.83;;;8.60;99.90;;;;;;4973071;28;20019;-75
2021/01/06 11:15:35;;;;;;;76.22;23.25;;;8.70;99.90;;;;;;4973936;28;20342;-74
2021/01/06 11:18:19;;;;;;;204.18;42.17;;;8.60;99.90;;;;;;4975949;28;20105;-74
2021/01/06 11:21:04;;;;;;;308.92;40.03;;;8.70;99.90;;;;;;4975207;28;20035;-73
2021/01/06 11:23:33;;;;;;;105.80;30.45;;;8.60;99.90;;;;;;4976420;28;20105;-73
2021/01/06 11:26:21;;;;;;;78.70;26.75;;;8.60;99.90;;;;;;4974384;28;20031;-75
2021/01/06 11:29:06;;;;;;;54.50;19.77;;;8.60;99.90;;;;;;4959753;28;20046;-75
2021/01/06 11:31:35;;;;;;;156.38;34.05;;;8.50;99.90;;;;;;4971520;28;20173;-74
2021/01/06 11:34:11;;;;;;;133.65;30.38;;;8.60;99.90;;;;;;4976591;28;20394;-72
2021/01/06 11:36:52;;;;;;;151.80;37.83;;;8.60;99.90;;;;;;4969770;28;20035;-73
2021/01/06 11:39:27;;;;;;;73.43;26.73;;;8.60;99.90;;;;;;4974605;28;20038;-73
2021/01/06 11:42:02;;;;;;;70.72;28.67;;;8.50;99.90;;;;;;4967935;28;20097;-73
2021/01/06 11:45:05;;;;;;;74.15;31.63;;;8.30;99.90;;;;;;4976054;28;20030;-73
2021/01/06 11:47:34;;;;;;;118.30;38.03;;;8.20;99.90;;;;;;4973407;28;20030;-73
2021/01/06 11:50:33;;;;;;;81.95;31.58;;;8.40;99.90;;;;;;4975241;28;20042;-72
2021/01/06 11:53:27;;;;;;;78.45;29.63;;;8.50;99.90;;;;;;4943720;28;20150;-73
2021/01/06 11:56:15;;;;;;;52.13;25.40;;;8.50;99.90;;;;;;4968915;28;20039;-73
2021/01/06 11:59:05;;;;;;;53.80;23.90;;;8.50;99.90;;;;;;4987840;28;20030;-73
2021/01/06 12:01:53;;;;;;;55.22;24.65;;;8.40;99.90;;;;;;4951536;28;20046;-73
2021/01/06 12:04:39;;;;;;;82.33;29.60;;;8.40;99.90;;;;;;4972261;28;20066;-73
2021/01/06 12:07:17;;;;;;;49.92;22.80;;;8.40;99.90;;;;;;4973817;28;20102;-73
2021/01/06 12:10:03;;;;;;;67.93;27.75;;;8.30;99.90;;;;;;4989868;28;20030;-74
2021/01/06 12:13:06;;;;;;;122.28;31.08;;;8.30;99.90;;;;;;4970789;28;20285;-75
2021/01/06 12:16:14;;;;;;;157.75;39.47;;;8.30;99.90;;;;;;4964539;28;20026;-76
2021/01/06 12:19:01;;;;;;;184.43;41.50;;;8.40;99.90;;;;;;4883278;29;20087;-75
2021/01/06 12:21:34;;;;;;;68.25;29.80;;;8.40;99.90;;;;;;4969119;28;20047;-74
2021/01/06 12:24:21;;;;;;;56.78;26.58;;;8.20;99.90;;;;;;4967743;28;20037;-75
2021/01/06 12:27:13;;;;;;;154.82;39.75;;;8.00;99.90;;;;;;4969110;28;20043;-73
2021/01/06 12:30:21;;;;;;;60.50;26.08;;;8.10;99.90;;;;;;4968983;28;20027;-74
2021/01/06 12:33:11;;;;;;;100.85;34.17;;;8.10;99.90;;;;;;4974998;28;20034;-73
2021/01/06 12:35:40;;;;;;;47.97;23.60;;;8.20;99.90;;;;;;4973911;28;20026;-72
2021/01/06 12:38:07;;;;;;;45.42;23.52;;;8.00;99.90;;;;;;4974700;28;20065;-73
2021/01/06 12:40:51;;;;;;;59.13;26.67;;;7.90;99.90;;;;;;4972954;28;20062;-73
2021/01/06 12:43:27;;;;;;;67.18;30.08;;;7.90;99.90;;;;;;4973780;28;20293;-73
2021/01/06 12:46:06;;;;;;;47.85;25.98;;;8.00;99.90;;;;;;4975381;28;20046;-72
2021/01/06 12:48:49;;;;;;;52.15;27.00;;;8.00;99.90;;;;;;4986462;28;20338;-73
2021/01/06 12:51:22;;;;;;;37.15;22.42;;;8.10;99.90;;;;;;4971698;28;20121;-73
2021/01/06 12:54:05;;;;;;;39.75;22.45;;;8.10;99.90;;;;;;4975453;28;20041;-74
2021/01/06 12:56:45;;;;;;;51.38;24.67;;;8.00;99.90;;;;;;4971434;28;20676;-74
2021/01/06 12:59:18;;;;;;;44.67;23.88;;;7.90;99.90;;;;;;4965226;28;20023;-74
2021/01/06 13:01:48;;;;;;;56.85;26.48;;;7.80;99.90;;;;;;4972660;28;20042;-73
2021/01/06 13:04:19;;;;;;;45.85;25.83;;;7.90;99.90;;;;;;4974348;28;20087;-75
2021/01/06 13:07:04;;;;;;;46.10;24.38;;;8.00;99.90;;;;;;4973136;28;20031;-73
2021/01/06 13:09:49;;;;;;;41.20;22.73;;;8.00;99.90;;;;;;4973171;28;20109;-73
2021/01/06 13:12:39;;;;;;;35.63;22.00;;;8.00;99.90;;;;;;4967334;28;20039;-72
2021/01/06 13:15:12;;;;;;;33.80;21.88;;;8.00;99.90;;;;;;4965897;28;20030;-74
2021/01/06 13:17:44;;;;;;;35.05;22.67;;;7.90;99.90;;;;;;4973597;28;20034;-74
2021/01/06 13:20:33;;;;;;;40.30;22.40;;;7.80;99.90;;;;;;4973030;28;20034;-73
2021/01/06 13:23:27;;;;;;;40.58;22.27;;;7.80;99.90;;;;;;4974692;28;20401;-75
2021/01/06 13:26:16;;;;;;;39.08;23.10;;;7.80;99.90;;;;;;4971811;28;20081;-74
2021/01/06 13:29:02;;;;;;;38.08;22.77;;;8.00;99.90;;;;;;4972318;28;20065;-74
2021/01/06 13:31:42;;;;;;;34.72;21.35;;;8.00;99.90;;;;;;4972175;28;20030;-74
2021/01/06 13:34:15;;;;;;;39.92;20.42;;;7.90;99.90;;;;;;4974939;28;20026;-74